createdAt,value
2022-09-25T00:00:36.964Z,3.70
2022-09-25T00:03:05.631Z,4.32
2022-09-25T00:05:39.101Z,5.28
2022-09-25T00:08:07.257Z,5.13
2022-09-25T00:10:35.911Z,5.32
2022-09-25T00:13:04.270Z,5.28
2022-09-25T00:15:32.412Z,5.40
2022-09-25T00:18:01.249Z,6.32
2022-09-25T00:20:29.686Z,6.07
2022-09-25T00:23:17.656Z,5.68
2022-09-25T00:25:53.845Z,6.65
2022-09-25T00:28:24.192Z,6.57
2022-09-25T00:30:52.726Z,6.70
2022-09-25T00:33:21.408Z,6.53
2022-09-25T00:35:49.399Z,7.72
2022-09-25T00:38:17.664Z,7.20
2022-09-25T00:40:45.936Z,7.30
2022-09-25T00:43:16.838Z,7.13
2022-09-25T00:45:46.471Z,6.97
2022-09-25T00:48:16.110Z,6.70
2022-09-25T00:51:02.182Z,7.40
2022-09-25T00:53:36.931Z,6.95
2022-09-25T00:56:05.203Z,7.53
2022-09-25T00:58:34.276Z,6.38
2022-09-25T01:01:02.395Z,6.10
2022-09-25T01:03:30.588Z,6.03
2022-09-25T01:06:00.616Z,5.53
2022-09-25T01:08:29.599Z,6.18
2022-09-25T01:10:59.520Z,6.03
2022-09-25T01:13:32.763Z,5.85
2022-09-25T01:16:21.731Z,5.22
2022-09-25T01:19:22.279Z,5.53
2022-09-25T01:22:06.567Z,5.10
2022-09-25T01:24:45.135Z,4.72
2022-09-25T01:27:42.799Z,5.55
2022-09-25T01:30:20.830Z,4.60
2022-09-25T01:33:01.057Z,5.35
2022-09-25T01:35:37.894Z,4.63
2022-09-25T01:38:44.072Z,5.55
2022-09-25T01:41:26.550Z,3.78
2022-09-25T01:44:01.692Z,4.53
2022-09-25T01:46:35.180Z,4.10
2022-09-25T01:49:30.488Z,4.75
2022-09-25T01:51:59.542Z,4.05
2022-09-25T01:54:37.266Z,4.20
2022-09-25T01:57:26.432Z,4.15
2022-09-25T02:00:22.099Z,3.95
2022-09-25T02:02:57.820Z,4.65
2022-09-25T02:08:04.142Z,4.28
2022-09-25T02:10:35.883Z,3.72
2022-09-25T02:13:09.697Z,4.13
2022-09-25T02:15:39.829Z,4.05
2022-09-25T02:18:27.915Z,4.20
2022-09-25T02:21:24.044Z,4.25
2022-09-25T02:23:52.138Z,4.80
2022-09-25T02:26:27.188Z,6.00
2022-09-25T02:28:56.338Z,4.47
2022-09-25T02:31:31.535Z,5.40
2022-09-25T02:34:04.012Z,4.80
2022-09-25T02:36:34.277Z,4.22
2022-09-25T02:39:04.189Z,4.13
2022-09-25T02:41:45.003Z,5.18
2022-09-25T02:44:24.570Z,4.20
2022-09-25T02:47:33.317Z,4.90
2022-09-25T02:50:06.863Z,4.90
2022-09-25T02:52:34.886Z,5.18
2022-09-25T02:55:10.265Z,5.10
2022-09-25T02:57:56.819Z,5.82
2022-09-25T03:00:25.908Z,5.03
2022-09-25T03:02:56.677Z,4.85
2022-09-25T03:05:26.092Z,4.97
2022-09-25T03:08:20.365Z,4.90
2022-09-25T03:10:48.643Z,5.22
2022-09-25T03:13:20.131Z,5.30
2022-09-25T03:15:53.556Z,4.90
2022-09-25T03:18:22.701Z,4.63
2022-09-25T03:20:51.119Z,5.28
2022-09-25T03:23:19.559Z,4.80
2022-09-25T03:25:50.358Z,6.25
2022-09-25T03:28:21.992Z,4.88
2022-09-25T03:31:04.678Z,4.93
2022-09-25T03:33:45.227Z,5.28
2022-09-25T03:36:14.725Z,4.25
2022-09-25T03:38:46.192Z,4.13
2022-09-25T03:41:15.915Z,3.92
2022-09-25T03:43:45.598Z,4.13
2022-09-25T03:46:18.786Z,4.70
2022-09-25T03:48:48.863Z,4.32
2022-09-25T03:51:17.337Z,4.60
2022-09-25T03:53:45.849Z,3.72
2022-09-25T03:56:20.592Z,4.32
2022-09-25T03:58:49.003Z,4.18
2022-09-25T04:01:19.669Z,3.72
2022-09-25T04:03:48.740Z,3.97
2022-09-25T04:06:20.592Z,3.83
2022-09-25T04:08:50.316Z,4.53
2022-09-25T04:11:21.541Z,4.97
2022-09-25T04:13:49.585Z,4.55
2022-09-25T04:16:23.305Z,4.63
2022-09-25T04:18:52.514Z,4.47
2022-09-25T04:21:21.082Z,4.13
2022-09-25T04:24:09.536Z,7.05
2022-09-25T04:26:39.137Z,5.00
2022-09-25T04:29:16.790Z,4.80
2022-09-25T04:32:08.579Z,4.63
2022-09-25T04:34:38.661Z,5.38
2022-09-25T04:37:11.395Z,4.53
2022-09-25T04:39:40.791Z,4.38
2022-09-25T04:42:36.152Z,3.45
2022-09-25T04:45:09.887Z,3.83
2022-09-25T04:47:39.198Z,3.42
2022-09-25T04:50:12.051Z,3.42
2022-09-25T04:52:43.721Z,3.80
2022-09-25T04:55:13.886Z,3.15
2022-09-25T04:57:58.367Z,3.55
2022-09-25T05:00:29.380Z,3.25
2022-09-25T05:02:59.291Z,3.67
2022-09-25T05:05:30.606Z,3.10
2022-09-25T05:08:00.540Z,4.47
2022-09-25T05:10:30.685Z,3.92
2022-09-25T05:13:04.695Z,3.75
2022-09-25T05:15:34.527Z,3.78
2022-09-25T05:18:05.007Z,4.47
2022-09-25T05:20:36.844Z,3.85
2022-09-25T05:23:08.961Z,4.43
2022-09-25T05:25:42.239Z,3.55
2022-09-25T05:28:15.041Z,3.60
2022-09-25T05:31:04.435Z,3.13
2022-09-25T05:33:43.820Z,3.90
2022-09-25T05:40:03.276Z,2.50
2022-09-25T05:42:35.512Z,3.17
2022-09-25T05:45:09.014Z,3.22
2022-09-25T05:47:40.366Z,3.35
2022-09-25T05:50:12.252Z,3.20
2022-09-25T05:53:01.021Z,3.70
2022-09-25T05:55:30.887Z,3.42
2022-09-25T05:58:10.167Z,3.72
2022-09-25T06:00:52.103Z,3.03
2022-09-25T06:03:22.095Z,2.83
2022-09-25T06:05:53.069Z,3.53
2022-09-25T06:08:22.767Z,2.88
2022-09-25T06:10:55.033Z,2.67
2022-09-25T06:13:25.048Z,3.00
2022-09-25T06:15:54.309Z,2.65
2022-09-25T06:18:24.590Z,3.55
2022-09-25T06:20:59.873Z,3.25
2022-09-25T06:23:28.631Z,3.85
2022-09-25T06:26:04.489Z,3.65
2022-09-25T06:28:34.823Z,4.22
2022-09-25T06:31:04.622Z,3.40
2022-09-25T06:33:33.382Z,3.33
2022-09-25T06:36:05.956Z,3.28
2022-09-25T06:42:23.739Z,3.50
2022-09-25T06:44:58.535Z,4.78
2022-09-25T07:31:59.250Z,2.90
2022-09-25T07:34:41.615Z,2.80
2022-09-25T07:37:11.547Z,1.95
2022-09-25T07:39:48.766Z,2.38
2022-09-25T07:47:09.257Z,2.38
2022-09-25T07:49:39.795Z,2.70
2022-09-25T07:52:08.840Z,2.25
2022-09-25T07:54:37.903Z,2.90
2022-09-25T07:57:06.927Z,2.00
2022-09-25T07:59:45.785Z,2.17
2022-09-25T08:02:24.119Z,1.88
2022-09-25T08:04:54.670Z,2.15
2022-09-25T08:08:01.429Z,2.88
2022-09-25T08:10:30.202Z,1.88
2022-09-25T08:13:37.444Z,1.77
2022-09-25T08:16:14.642Z,1.55
2022-09-25T08:18:56.898Z,1.67
2022-09-25T08:21:26.116Z,2.13
2022-09-25T08:23:59.507Z,1.80
2022-09-25T08:26:43.251Z,1.90
2022-09-25T08:29:18.890Z,1.88
2022-09-25T08:31:48.776Z,1.63
2022-09-25T08:34:40.016Z,1.75
2022-09-25T08:37:08.501Z,1.65
2022-09-25T08:39:39.108Z,2.67
2022-09-25T08:47:03.646Z,2.28
2022-09-25T08:49:40.406Z,2.40
2022-09-25T08:52:23.373Z,4.38
2022-09-25T08:54:56.787Z,2.17
2022-09-25T08:57:38.420Z,2.30
2022-09-25T09:00:17.753Z,1.90
2022-09-25T09:02:56.488Z,2.40
2022-09-25T09:05:54.196Z,3.10
2022-09-25T09:08:41.783Z,2.17
2022-09-25T09:11:17.291Z,1.27
2022-09-25T09:14:05.874Z,1.90
2022-09-25T09:16:59.191Z,1.25
2022-09-25T09:20:39.907Z,1.67
2022-09-25T09:24:09.723Z,2.05
2022-09-25T09:27:24.054Z,1.75
2022-09-25T09:30:30.043Z,1.27
2022-09-25T09:33:20.383Z,1.50
2022-09-25T09:35:51.500Z,1.33
2022-09-25T09:38:44.160Z,1.50
2022-09-25T09:41:34.366Z,1.73
2022-09-25T09:44:24.980Z,1.15
2022-09-25T09:46:56.640Z,1.30
2022-09-25T09:49:49.932Z,1.40
2022-09-25T09:52:23.756Z,1.10
2022-09-25T09:55:27.682Z,1.13
2022-09-25T09:58:00.134Z,1.75
2022-09-25T10:00:33.392Z,1.50
2022-09-25T10:03:25.381Z,1.90
2022-09-25T10:06:04.725Z,1.35
2022-09-25T10:08:37.136Z,1.48
2022-09-25T10:11:20.782Z,1.25
2022-09-25T10:13:52.800Z,1.52
2022-09-25T10:16:58.608Z,1.35
2022-09-25T10:19:41.770Z,1.60
2022-09-25T10:22:17.348Z,1.50
2022-09-25T10:25:02.354Z,0.98
2022-09-25T10:27:38.273Z,1.13
2022-09-25T10:30:12.214Z,1.58
2022-09-25T10:32:58.379Z,1.40
2022-09-25T10:35:40.362Z,1.67
2022-09-25T10:38:27.522Z,1.60
2022-09-25T10:41:01.257Z,2.58
2022-09-25T10:43:31.553Z,1.65
2022-09-25T10:46:16.318Z,1.60
2022-09-25T10:49:05.352Z,1.75
2022-09-25T10:51:39.129Z,1.48
2022-09-25T10:54:13.285Z,1.65
2022-09-25T10:56:41.203Z,1.65
2022-09-25T10:59:19.664Z,1.40
2022-09-25T11:01:51.241Z,1.50
2022-09-25T11:04:30.830Z,1.40
2022-09-25T11:07:05.074Z,2.08
2022-09-25T11:09:33.780Z,1.13
2022-09-25T11:12:26.953Z,1.00
2022-09-25T11:15:06.228Z,1.27
2022-09-25T11:17:44.325Z,1.25
2022-09-25T11:20:19.217Z,1.13
2022-09-25T11:23:34.750Z,1.30
2022-09-25T11:26:18.627Z,1.05
2022-09-25T11:28:57.848Z,1.30
2022-09-25T11:34:41.440Z,0.80
2022-09-25T11:37:35.377Z,1.27
2022-09-25T11:40:32.754Z,1.40
2022-09-25T11:43:08.924Z,1.40
2022-09-25T11:46:24.627Z,2.15
2022-09-25T11:49:36.900Z,3.05
2022-09-25T11:52:08.137Z,3.30
2022-09-25T11:54:55.475Z,3.70
2022-09-25T11:57:43.294Z,4.43
2022-09-25T12:00:43.512Z,3.60
2022-09-25T12:03:25.200Z,3.70
2022-09-25T12:06:17.186Z,2.53
2022-09-25T12:09:10.689Z,3.38
2022-09-25T12:12:11.884Z,2.22
2022-09-25T12:14:54.578Z,1.92
2022-09-25T12:17:53.324Z,1.40
2022-09-25T12:20:34.364Z,1.80
2022-09-25T12:47:03.255Z,1.48
2022-09-25T12:55:21.341Z,1.50
2022-09-25T12:58:19.122Z,1.80
2022-09-25T13:07:45.726Z,2.35
2022-09-25T13:11:14.324Z,2.08
2022-09-25T13:13:46.811Z,1.58
2022-09-25T13:16:18.619Z,1.75
2022-09-25T13:19:11.466Z,1.98
2022-09-25T13:21:43.125Z,2.40
2022-09-25T13:24:18.267Z,2.25
2022-09-25T13:26:53.831Z,2.40
2022-09-25T13:33:34.408Z,2.17
2022-09-25T13:36:26.118Z,2.28
2022-09-25T13:39:22.591Z,2.25
2022-09-25T13:41:59.346Z,2.50
2022-09-25T13:45:03.724Z,2.30
2022-09-25T13:48:03.025Z,2.58
2022-09-25T13:50:39.380Z,2.35
2022-09-25T13:53:20.311Z,2.03
2022-09-25T13:56:02.371Z,2.15
2022-09-25T13:58:34.911Z,1.95
2022-09-25T14:01:03.288Z,1.88
2022-09-25T14:03:51.018Z,1.90
2022-09-25T14:06:26.454Z,2.22
2022-09-25T14:08:57.226Z,2.50
2022-09-25T14:11:28.521Z,1.95
2022-09-25T14:14:03.696Z,2.13
2022-09-25T14:16:41.192Z,2.08
2022-09-25T14:19:35.546Z,2.45
2022-09-25T14:22:04.400Z,2.85
2022-09-25T14:24:33.460Z,2.58
2022-09-25T14:27:05.406Z,2.70
2022-09-25T14:29:44.709Z,3.10
2022-09-25T14:32:56.054Z,2.70
2022-09-25T14:36:24.703Z,2.70
2022-09-25T14:39:33.276Z,2.80
2022-09-25T14:42:19.003Z,2.35
2022-09-25T14:45:04.173Z,3.08
2022-09-25T14:47:38.179Z,3.13
2022-09-25T14:50:12.596Z,2.83
2022-09-25T14:52:44.812Z,2.75
2022-09-25T14:55:53.166Z,3.05
2022-09-25T14:58:23.525Z,3.33
2022-09-25T15:01:31.517Z,3.22
2022-09-25T15:04:13.478Z,3.15
2022-09-25T15:06:44.898Z,3.63
2022-09-25T15:09:48.052Z,3.72
2022-09-25T15:12:18.430Z,4.50
2022-09-25T15:15:10.210Z,5.65
2022-09-25T15:18:05.172Z,4.15
2022-09-25T15:20:34.953Z,3.95
2022-09-25T15:23:08.310Z,4.88
2022-09-25T15:25:42.936Z,4.10
2022-09-25T15:28:16.875Z,5.25
2022-09-25T15:30:49.127Z,5.85
2022-09-25T15:33:29.336Z,6.50
2022-09-25T15:35:59.096Z,5.65
2022-09-25T15:38:36.231Z,5.93
2022-09-25T15:41:11.238Z,5.75
2022-09-25T15:43:41.825Z,6.60
2022-09-25T15:46:19.548Z,5.97
2022-09-25T15:48:58.253Z,5.47
2022-09-25T15:51:30.865Z,5.13
2022-09-25T15:54:20.882Z,5.35
2022-09-25T15:57:18.476Z,7.38
2022-09-25T16:00:14.681Z,6.97
2022-09-25T16:03:54.767Z,6.50
2022-09-25T16:07:00.874Z,11.50
2022-09-25T16:09:34.964Z,8.77
2022-09-25T16:16:06.275Z,9.73
2022-09-25T16:19:30.413Z,13.60
2022-09-25T16:22:27.193Z,18.42
2022-09-25T16:25:19.677Z,20.42
2022-09-25T16:28:13.833Z,20.40
2022-09-25T16:31:10.650Z,17.40
2022-09-25T16:33:44.848Z,13.63
2022-09-25T16:36:18.555Z,14.98
2022-09-25T16:39:09.893Z,13.65
2022-09-25T16:41:56.966Z,14.32
2022-09-25T16:44:36.180Z,16.08
2022-09-25T16:47:34.909Z,25.70
2022-09-25T16:50:23.841Z,39.65
2022-09-25T16:52:58.017Z,37.08
2022-09-25T16:55:30.353Z,35.50
2022-09-25T16:58:00.268Z,28.65
2022-09-25T17:00:30.131Z,35.20
2022-09-25T17:02:59.739Z,38.05
2022-09-25T17:05:36.451Z,37.55
2022-09-25T17:08:21.586Z,32.67
2022-09-25T17:10:51.141Z,53.53
2022-09-25T17:13:53.452Z,55.60
2022-09-25T17:16:25.387Z,58.15
2022-09-25T17:19:01.506Z,57.15
2022-09-25T17:21:30.289Z,52.72
2022-09-25T17:23:58.301Z,55.63
2022-09-25T17:26:34.824Z,66.00
2022-09-25T17:29:10.052Z,67.53
2022-09-25T17:31:43.258Z,73.80
2022-09-25T17:34:50.527Z,76.30
2022-09-25T17:38:01.312Z,77.72
2022-09-25T17:45:59.077Z,75.47
2022-09-25T17:48:36.165Z,66.18
2022-09-25T17:51:20.498Z,59.50
2022-09-25T17:53:59.635Z,46.75
2022-09-25T17:56:37.957Z,47.97
2022-09-25T17:59:26.029Z,39.22
2022-09-25T18:02:04.046Z,32.15
2022-09-25T18:04:40.829Z,28.60
2022-09-25T18:07:20.437Z,23.83
2022-09-25T18:10:40.254Z,28.20
2022-09-25T18:14:50.316Z,21.05
2022-09-25T18:24:41.774Z,18.42
2022-09-25T18:27:38.023Z,12.70
2022-09-25T18:30:21.995Z,10.38
2022-09-25T18:32:59.175Z,8.88
2022-09-25T18:35:29.026Z,9.02
2022-09-25T18:38:02.505Z,8.93
2022-09-25T18:42:09.211Z,10.27
2022-09-25T18:44:42.538Z,10.70
2022-09-25T18:47:15.150Z,8.23
2022-09-25T18:49:57.206Z,7.10
2022-09-25T18:56:23.283Z,7.47
2022-09-25T18:58:58.987Z,7.45
2022-09-25T19:04:53.157Z,7.07
2022-09-25T19:14:51.064Z,5.90
2022-09-25T19:17:46.008Z,6.28
2022-09-25T19:20:24.358Z,7.10
2022-09-25T19:22:52.597Z,5.97
2022-09-25T19:26:19.112Z,7.10
2022-09-25T19:28:59.896Z,6.68
2022-09-25T19:31:43.630Z,8.43
2022-09-25T19:34:38.626Z,7.32
2022-09-25T19:37:10.658Z,6.65
2022-09-25T19:40:09.630Z,7.10
2022-09-25T19:43:08.994Z,5.80
2022-09-25T19:50:54.237Z,6.60
2022-09-25T19:53:36.605Z,6.32
2022-09-25T19:56:09.519Z,6.20
2022-09-25T19:58:56.559Z,7.35
2022-09-25T20:01:30.959Z,7.53
2022-09-25T20:04:10.236Z,6.57
2022-09-25T20:06:45.056Z,7.22
2022-09-25T20:09:17.807Z,5.97
2022-09-25T20:11:50.425Z,6.28
2022-09-25T20:14:25.336Z,6.80
2022-09-25T20:18:06.452Z,6.97
2022-09-25T20:20:53.974Z,6.35
2022-09-25T20:23:35.293Z,5.90
2022-09-25T20:26:36.763Z,5.78
2022-09-25T20:29:34.876Z,5.93
2022-09-25T20:32:07.371Z,6.35
2022-09-25T20:34:39.490Z,7.40
2022-09-25T20:37:15.965Z,7.32
2022-09-25T20:39:46.592Z,7.13
2022-09-25T20:42:21.816Z,6.72
2022-09-25T20:44:55.631Z,10.45
2022-09-25T20:47:45.187Z,11.82
2022-09-25T20:50:21.983Z,16.73
2022-09-25T20:53:04.649Z,14.32
2022-09-25T20:55:38.499Z,14.63
2022-09-25T20:58:10.382Z,14.50
2022-09-25T21:00:43.555Z,13.65
2022-09-25T21:03:48.397Z,15.65
2022-09-25T21:06:18.606Z,15.98
2022-09-25T21:08:51.243Z,20.95
2022-09-25T21:11:20.403Z,22.00
2022-09-25T21:14:00.745Z,22.88
2022-09-25T21:16:34.153Z,24.23
2022-09-25T21:19:04.604Z,29.02
2022-09-25T21:21:34.359Z,30.65
2022-09-25T21:24:07.334Z,32.25
2022-09-25T21:26:38.978Z,30.83
2022-09-25T21:29:06.928Z,32.38
2022-09-25T21:31:37.844Z,32.55
2022-09-25T21:34:07.705Z,30.90
2022-09-25T21:36:37.677Z,27.27
2022-09-25T21:39:06.511Z,18.13
2022-09-25T21:41:36.867Z,15.35
2022-09-25T21:44:10.878Z,10.15
2022-09-25T21:46:39.715Z,6.30
2022-09-25T21:49:22.972Z,6.35
2022-09-25T21:51:55.842Z,6.68
2022-09-25T21:54:23.785Z,8.45
2022-09-25T21:56:52.951Z,11.93
2022-09-25T21:59:22.770Z,14.90
2022-09-25T22:01:53.584Z,12.63
2022-09-25T22:04:22.304Z,8.60
2022-09-25T22:06:52.132Z,6.30
2022-09-25T22:09:24.683Z,4.85
2022-09-25T22:11:53.677Z,5.57
2022-09-25T22:14:22.727Z,7.00
2022-09-25T22:16:52.780Z,15.63
2022-09-25T22:19:30.486Z,19.00
2022-09-25T22:22:02.211Z,22.15
2022-09-25T22:24:31.252Z,26.67
2022-09-25T22:27:02.697Z,30.27
2022-09-25T22:29:34.457Z,37.35
2022-09-25T22:32:05.322Z,35.22
2022-09-25T22:34:37.059Z,36.75
2022-09-25T22:37:06.323Z,33.67
2022-09-25T22:39:37.447Z,31.48
2022-09-25T22:42:08.709Z,28.50
2022-09-25T22:44:37.127Z,26.63
2022-09-25T22:47:07.231Z,24.35
2022-09-25T22:49:36.135Z,27.08
2022-09-25T22:52:07.057Z,25.10
2022-09-25T22:54:37.233Z,25.77
2022-09-25T22:57:05.072Z,31.70
2022-09-25T22:59:33.305Z,25.42
2022-09-25T23:02:01.305Z,23.58
2022-09-25T23:04:29.101Z,22.00
2022-09-25T23:06:59.309Z,20.15
2022-09-25T23:09:27.697Z,18.75
2022-09-25T23:11:58.479Z,19.67
2022-09-25T23:14:30.474Z,19.63
2022-09-25T23:17:03.363Z,19.55
2022-09-25T23:19:31.708Z,19.05
2022-09-25T23:22:02.432Z,17.13
2022-09-25T23:24:35.216Z,17.20
2022-09-25T23:27:04.310Z,15.90
2022-09-25T23:29:32.482Z,17.55
2022-09-25T23:32:00.635Z,16.77
2022-09-25T23:34:28.698Z,17.98
2022-09-25T23:36:57.153Z,16.75
2022-09-25T23:39:34.257Z,17.48
2022-09-25T23:42:02.393Z,15.77
2022-09-25T23:44:32.282Z,16.30
2022-09-25T23:47:02.304Z,16.65
2022-09-25T23:49:32.309Z,14.15
2022-09-25T23:52:03.254Z,13.20
2022-09-25T23:54:32.460Z,12.93
2022-09-25T23:57:04.412Z,14.25
2022-09-25T23:59:32.902Z,12.40
